createdAt,value
2023-04-28T00:02:02.691Z,64.57
2023-04-28T00:04:30.166Z,64.50
2023-04-28T00:06:57.322Z,64.58
2023-04-28T00:09:24.320Z,64.89
2023-04-28T00:11:51.567Z,64.63
2023-04-28T00:14:18.860Z,65.21
2023-04-28T00:16:46.132Z,64.92
2023-04-28T00:19:13.365Z,64.84
2023-04-28T00:21:40.533Z,64.34
2023-04-28T00:24:07.604Z,65.21
2023-04-28T00:26:34.677Z,64.29
2023-04-28T00:29:01.670Z,64.88
2023-04-28T00:31:28.616Z,64.76
2023-04-28T00:33:55.646Z,65.16
2023-04-28T00:36:22.698Z,65.15
2023-04-28T00:38:49.754Z,65.34
2023-04-28T00:41:16.716Z,64.71
2023-04-28T00:43:48.358Z,64.84
2023-04-28T00:46:21.780Z,64.81
2023-04-28T00:48:50.057Z,64.83
2023-04-28T00:51:17.677Z,65.04
2023-04-28T00:53:45.697Z,65.29
2023-04-28T00:56:13.049Z,65.67
2023-04-28T00:58:40.509Z,65.30
2023-04-28T01:01:09.831Z,65.01
2023-04-28T01:03:39.190Z,65.13
2023-04-28T01:06:09.050Z,65.23
2023-04-28T01:08:38.788Z,65.49
2023-04-28T01:11:14.406Z,65.47
2023-04-28T01:13:57.472Z,65.46
2023-04-28T01:16:27.718Z,65.11
2023-04-28T01:18:55.891Z,64.84
2023-04-28T01:21:35.725Z,64.83
2023-04-28T01:24:28.622Z,65.28
2023-04-28T01:26:59.721Z,65.37
2023-04-28T01:29:28.231Z,64.88
2023-04-28T01:31:55.602Z,64.92
2023-04-28T01:34:22.636Z,64.90
2023-04-28T01:36:49.649Z,64.69
2023-04-28T01:39:17.331Z,65.08
2023-04-28T01:41:44.345Z,65.61
2023-04-28T01:44:13.145Z,65.80
2023-04-28T01:46:41.093Z,65.00
2023-04-28T01:49:08.155Z,65.00
2023-04-28T01:51:35.156Z,65.16
2023-04-28T01:54:02.541Z,65.23
2023-04-28T01:56:30.527Z,64.93
2023-04-28T01:58:58.629Z,64.72
2023-04-28T02:01:26.090Z,64.70
2023-04-28T02:03:55.601Z,64.79
2023-04-28T02:06:23.840Z,65.19
2023-04-28T02:08:50.923Z,65.13
2023-04-28T02:11:18.049Z,65.15
2023-04-28T02:13:45.098Z,64.80
2023-04-28T02:16:12.239Z,64.67
2023-04-28T02:18:39.647Z,64.47
2023-04-28T02:21:13.152Z,65.35
2023-04-28T02:23:40.568Z,65.12
2023-04-28T02:26:07.650Z,65.21
2023-04-28T02:28:34.725Z,65.72
2023-04-28T02:31:09.714Z,65.48
2023-04-28T02:33:37.525Z,64.99
2023-04-28T02:36:06.183Z,64.65
2023-04-28T02:38:33.432Z,64.87
2023-04-28T02:41:05.182Z,64.82
2023-04-28T02:43:32.774Z,64.95
2023-04-28T02:46:00.315Z,65.10
2023-04-28T02:48:27.509Z,65.26
2023-04-28T02:50:54.592Z,65.13
2023-04-28T02:53:22.900Z,65.14
2023-04-28T02:55:50.686Z,64.81
2023-04-28T02:58:18.446Z,64.61
2023-04-28T03:00:46.690Z,64.56
2023-04-28T03:03:14.595Z,64.88
2023-04-28T03:05:41.864Z,64.71
2023-04-28T03:08:08.928Z,64.69
2023-04-28T03:10:36.126Z,64.95
2023-04-28T03:13:04.243Z,65.40
2023-04-28T03:15:31.258Z,64.85
2023-04-28T03:17:58.376Z,64.79
2023-04-28T03:20:25.485Z,65.12
2023-04-28T03:22:53.119Z,64.99
2023-04-28T03:25:20.108Z,64.89
2023-04-28T03:27:49.659Z,64.75
2023-04-28T03:30:16.777Z,65.10
2023-04-28T03:32:43.716Z,64.86
2023-04-28T03:35:10.971Z,64.70
2023-04-28T03:37:39.826Z,64.79
2023-04-28T03:40:07.552Z,64.76
2023-04-28T03:42:54.528Z,65.04
2023-04-28T03:45:35.250Z,64.37
2023-04-28T03:48:02.616Z,64.70
2023-04-28T03:50:29.828Z,64.49
2023-04-28T03:52:57.307Z,64.71
2023-04-28T03:55:26.238Z,64.66
2023-04-28T03:57:53.567Z,64.81
2023-04-28T04:00:20.536Z,65.11
2023-04-28T04:02:51.323Z,64.41
2023-04-28T04:05:18.674Z,64.31
2023-04-28T04:07:45.723Z,64.75
2023-04-28T04:10:13.220Z,64.51
2023-04-28T04:12:43.064Z,64.43
2023-04-28T04:15:10.259Z,64.24
2023-04-28T04:17:38.736Z,64.21
2023-04-28T04:20:06.927Z,64.47
2023-04-28T04:22:33.895Z,64.32
2023-04-28T04:25:00.934Z,64.13
2023-04-28T04:27:28.131Z,64.12
2023-04-28T04:29:56.265Z,64.27
2023-04-28T04:32:23.287Z,63.89
2023-04-28T04:34:50.354Z,63.68
2023-04-28T04:37:17.720Z,63.91
2023-04-28T04:39:58.235Z,63.51
2023-04-28T04:42:26.089Z,63.53
2023-04-28T04:45:08.839Z,63.30
2023-04-28T04:47:36.671Z,63.72
2023-04-28T04:50:04.003Z,63.49
2023-04-28T04:52:31.477Z,63.22
2023-04-28T04:54:58.635Z,63.13
2023-04-28T04:57:26.117Z,63.28
2023-04-28T05:00:08.056Z,63.30
2023-04-28T05:02:35.688Z,63.15
2023-04-28T05:05:16.896Z,63.04
2023-04-28T05:07:52.778Z,62.82
2023-04-28T05:10:21.696Z,62.66
2023-04-28T05:12:49.277Z,62.51
2023-04-28T05:15:18.291Z,62.04
2023-04-28T05:17:59.517Z,62.29
2023-04-28T05:20:37.253Z,62.03
2023-04-28T05:23:04.336Z,61.87
2023-04-28T05:25:32.136Z,61.69
2023-04-28T05:28:04.935Z,61.79
2023-04-28T05:30:32.084Z,61.61
2023-04-28T05:32:59.340Z,61.05
2023-04-28T05:35:27.554Z,61.25
2023-04-28T05:37:54.620Z,61.16
2023-04-28T05:40:21.804Z,60.83
2023-04-28T05:42:48.817Z,60.71
2023-04-28T05:45:15.990Z,60.26
2023-04-28T05:47:43.081Z,60.21
2023-04-28T05:50:10.772Z,60.00
2023-04-28T05:52:37.859Z,59.84
2023-04-28T05:55:05.078Z,59.10
2023-04-28T05:57:38.802Z,59.26
2023-04-28T06:00:13.407Z,58.96
2023-04-28T06:02:40.770Z,58.60
2023-04-28T06:05:10.059Z,58.01
2023-04-28T06:07:37.713Z,57.95
2023-04-28T06:10:06.074Z,56.73
2023-04-28T06:12:32.961Z,55.88
2023-04-28T06:15:01.214Z,55.16
2023-04-28T06:17:28.421Z,53.59
2023-04-28T06:19:55.922Z,53.52
2023-04-28T06:22:22.857Z,51.98
2023-04-28T06:24:49.829Z,51.95
2023-04-28T06:27:20.671Z,51.26
2023-04-28T06:29:49.573Z,49.64
2023-04-28T06:32:16.499Z,48.43
2023-04-28T06:34:43.611Z,48.48
2023-04-28T06:37:20.719Z,46.79
2023-04-28T06:39:48.220Z,45.87
2023-04-28T06:42:18.988Z,44.70
2023-04-28T06:44:53.303Z,44.02
2023-04-28T06:47:20.313Z,42.77
2023-04-28T06:49:50.154Z,41.27
2023-04-28T06:52:17.341Z,41.31
2023-04-28T06:54:44.300Z,39.51
2023-04-28T06:57:11.549Z,38.84
2023-04-28T06:59:38.548Z,36.85
2023-04-28T07:02:05.698Z,37.82
2023-04-28T07:04:32.737Z,35.38
2023-04-28T07:06:59.706Z,34.73
2023-04-28T07:09:26.680Z,33.63
2023-04-28T07:11:54.068Z,33.93
2023-04-28T07:14:21.177Z,33.53
2023-04-28T07:16:48.177Z,32.39
2023-04-28T07:19:15.321Z,32.40
2023-04-28T07:21:42.293Z,31.54
2023-04-28T07:24:09.287Z,30.75
2023-04-28T07:26:36.381Z,30.54
2023-04-28T07:29:03.350Z,31.03
2023-04-28T07:31:30.434Z,29.58
2023-04-28T07:33:57.375Z,29.89
2023-04-28T07:36:24.304Z,29.76
2023-04-28T07:38:51.376Z,29.54
2023-04-28T07:41:18.945Z,28.75
2023-04-28T07:43:45.936Z,27.79
2023-04-28T07:46:13.574Z,27.70
2023-04-28T07:48:40.706Z,26.82
2023-04-28T07:51:07.650Z,27.50
2023-04-28T07:53:35.314Z,27.64
2023-04-28T07:56:02.486Z,27.23
2023-04-28T07:58:29.514Z,26.75
2023-04-28T08:00:56.555Z,25.69
2023-04-28T08:03:23.684Z,25.76
2023-04-28T08:05:50.952Z,24.90
2023-04-28T08:08:18.473Z,24.78
2023-04-28T08:10:45.904Z,23.38
2023-04-28T08:13:13.058Z,24.74
2023-04-28T08:15:40.458Z,25.37
2023-04-28T08:18:07.719Z,24.06
2023-04-28T08:20:34.889Z,23.94
2023-04-28T08:23:01.805Z,22.72
2023-04-28T08:25:28.824Z,22.35
2023-04-28T08:27:57.459Z,23.92
2023-04-28T08:30:24.929Z,23.06
2023-04-28T08:32:51.911Z,22.70
2023-04-28T08:35:19.499Z,23.01
2023-04-28T08:37:49.516Z,22.02
2023-04-28T08:40:16.596Z,23.33
2023-04-28T08:42:46.031Z,22.72
2023-04-28T08:45:17.168Z,22.12
2023-04-28T08:47:49.682Z,21.98
2023-04-28T08:50:22.651Z,21.72
2023-04-28T08:52:52.849Z,21.88
2023-04-28T08:55:20.319Z,24.75
2023-04-28T08:57:51.567Z,26.43
2023-04-28T09:00:18.819Z,27.44
2023-04-28T09:02:45.876Z,29.41
2023-04-28T09:05:14.329Z,30.77
2023-04-28T09:07:41.736Z,33.07
2023-04-28T09:10:20.708Z,34.65
2023-04-28T09:12:49.486Z,34.62
2023-04-28T09:15:41.058Z,37.11
2023-04-28T09:18:08.670Z,35.74
2023-04-28T09:20:37.159Z,35.62
2023-04-28T09:23:17.703Z,36.43
2023-04-28T09:26:06.519Z,36.46
2023-04-28T09:28:35.222Z,38.20
2023-04-28T09:31:03.105Z,38.19
2023-04-28T09:33:37.148Z,38.59
2023-04-28T09:36:04.311Z,39.19
2023-04-28T09:38:31.359Z,39.79
2023-04-28T09:40:59.821Z,39.75
2023-04-28T09:43:31.730Z,39.55
2023-04-28T09:46:00.855Z,39.25
2023-04-28T09:48:29.113Z,39.32
2023-04-28T09:50:57.155Z,39.29
2023-04-28T09:53:24.836Z,39.46
2023-04-28T09:55:57.033Z,39.71
2023-04-28T09:58:26.022Z,40.43
2023-04-28T10:00:58.290Z,41.34
2023-04-28T10:03:29.571Z,41.15
2023-04-28T10:05:58.988Z,40.95
2023-04-28T10:08:28.406Z,42.06
2023-04-28T10:10:57.049Z,41.83
2023-04-28T10:13:24.498Z,42.50
2023-04-28T10:15:55.609Z,43.09
2023-04-28T10:18:24.569Z,43.69
2023-04-28T10:21:00.416Z,45.11
2023-04-28T10:23:52.116Z,44.60
2023-04-28T10:26:20.284Z,44.87
2023-04-28T10:28:52.318Z,44.85
2023-04-28T10:31:21.557Z,45.01
2023-04-28T10:33:49.622Z,45.10
2023-04-28T10:36:55.987Z,44.52
2023-04-28T10:39:23.348Z,44.92
2023-04-28T10:41:50.361Z,45.53
2023-04-28T10:44:29.166Z,45.48
2023-04-28T10:47:09.849Z,47.03
2023-04-28T10:49:55.145Z,47.83
2023-04-28T10:52:37.902Z,48.53
2023-04-28T10:55:36.964Z,46.75
2023-04-28T10:58:30.037Z,48.37
2023-04-28T11:01:24.873Z,49.79
2023-04-28T11:04:10.846Z,50.94
2023-04-28T11:07:07.947Z,50.66
2023-04-28T11:09:34.872Z,50.50
2023-04-28T11:12:06.029Z,50.51
2023-04-28T11:14:35.777Z,50.36
2023-04-28T11:17:13.704Z,50.70
2023-04-28T11:19:41.986Z,51.46
2023-04-28T11:22:23.743Z,52.35
2023-04-28T11:25:10.949Z,53.13
2023-04-28T11:27:37.901Z,52.26
2023-04-28T11:30:20.260Z,51.04
2023-04-28T11:32:50.570Z,50.67
2023-04-28T11:35:17.582Z,51.72
2023-04-28T11:37:44.557Z,51.44
2023-04-28T11:40:13.185Z,51.97
2023-04-28T11:42:49.345Z,52.71
2023-04-28T11:45:16.383Z,54.18
2023-04-28T11:47:43.514Z,54.77
2023-04-28T11:50:11.204Z,54.85
2023-04-28T11:52:50.851Z,54.19
2023-04-28T11:55:19.585Z,51.78
2023-04-28T11:57:46.801Z,53.38
2023-04-28T12:00:22.782Z,54.90
2023-04-28T12:02:50.075Z,55.98
2023-04-28T12:05:17.352Z,55.50
2023-04-28T12:07:45.725Z,56.18
2023-04-28T12:10:16.013Z,57.94
2023-04-28T12:12:50.847Z,56.53
2023-04-28T12:15:20.644Z,55.51
2023-04-28T12:17:48.818Z,55.61
2023-04-28T12:20:43.674Z,55.24
2023-04-28T12:23:10.702Z,56.72
2023-04-28T12:25:45.120Z,56.15
2023-04-28T12:28:12.539Z,55.44
2023-04-28T12:30:42.147Z,53.93
2023-04-28T12:33:29.175Z,55.50
2023-04-28T12:35:57.281Z,55.07
2023-04-28T12:38:25.146Z,54.95
2023-04-28T12:40:53.079Z,54.66
2023-04-28T12:43:23.217Z,53.57
2023-04-28T12:45:51.383Z,54.38
2023-04-28T12:48:18.601Z,54.95
2023-04-28T12:50:46.271Z,54.97
2023-04-28T12:53:13.183Z,55.49
2023-04-28T12:55:40.699Z,58.60
2023-04-28T12:58:11.415Z,59.24
2023-04-28T13:00:45.313Z,60.71
2023-04-28T13:03:12.413Z,61.23
2023-04-28T13:05:43.256Z,59.11
2023-04-28T13:08:10.342Z,59.03
2023-04-28T13:10:37.964Z,58.52
2023-04-28T13:13:05.587Z,57.81
2023-04-28T13:15:32.507Z,57.30
2023-04-28T13:18:00.328Z,57.77
2023-04-28T13:20:30.792Z,57.80
2023-04-28T13:22:57.815Z,58.24
2023-04-28T13:25:24.880Z,56.54
2023-04-28T13:27:52.084Z,58.28
2023-04-28T13:30:18.971Z,58.52
2023-04-28T13:32:45.995Z,59.48
2023-04-28T13:35:20.358Z,58.59
2023-04-28T13:37:47.268Z,57.69
2023-04-28T13:40:14.219Z,57.73
2023-04-28T13:42:41.374Z,57.83
2023-04-28T13:45:08.572Z,59.30
2023-04-28T13:47:35.674Z,59.04
2023-04-28T13:50:03.624Z,58.09
2023-04-28T13:52:30.970Z,59.40
2023-04-28T13:54:58.077Z,59.42
2023-04-28T13:57:34.981Z,59.28
2023-04-28T14:00:02.394Z,59.79
2023-04-28T14:02:35.101Z,59.73
2023-04-28T14:05:02.113Z,60.30
2023-04-28T14:07:29.030Z,60.35
2023-04-28T14:09:56.004Z,60.60
2023-04-28T14:12:22.903Z,60.66
2023-04-28T14:14:50.240Z,60.84
2023-04-28T14:17:17.387Z,61.08
2023-04-28T14:19:44.759Z,61.39
2023-04-28T14:22:12.052Z,61.67
2023-04-28T14:24:39.467Z,64.04
2023-04-28T14:27:07.543Z,64.90
2023-04-28T14:29:34.488Z,63.30
2023-04-28T14:32:01.657Z,63.30
2023-04-28T14:34:29.192Z,62.87
2023-04-28T14:36:56.327Z,62.10
2023-04-28T14:39:24.550Z,62.47
2023-04-28T14:41:51.580Z,61.90
2023-04-28T14:44:18.678Z,61.91
2023-04-28T14:46:45.702Z,62.48
2023-04-28T14:49:12.867Z,62.01
2023-04-28T14:51:40.060Z,63.97
2023-04-28T14:54:09.241Z,63.21
2023-04-28T14:56:36.209Z,63.35
2023-04-28T14:59:03.599Z,62.65
2023-04-28T15:01:31.000Z,62.64
2023-04-28T15:03:58.706Z,62.05
2023-04-28T15:06:26.289Z,61.77
2023-04-28T15:08:53.353Z,61.63
2023-04-28T15:11:20.287Z,61.61
2023-04-28T15:13:47.242Z,62.73
2023-04-28T15:16:14.555Z,62.06
2023-04-28T15:18:41.659Z,62.37
2023-04-28T15:21:08.841Z,62.73
2023-04-28T15:23:35.847Z,63.55
2023-04-28T15:26:03.714Z,64.01
2023-04-28T15:28:30.715Z,64.57
2023-04-28T15:30:57.637Z,64.04
2023-04-28T15:33:24.918Z,63.04
2023-04-28T15:35:51.896Z,62.64
2023-04-28T15:38:19.042Z,62.81
2023-04-28T15:40:46.342Z,62.83
2023-04-28T15:43:13.890Z,62.29
2023-04-28T15:45:44.174Z,62.52
2023-04-28T15:48:12.238Z,62.61
2023-04-28T15:50:40.199Z,62.32
2023-04-28T15:53:07.257Z,63.35
2023-04-28T15:55:34.374Z,63.42
2023-04-28T15:58:02.212Z,63.92
2023-04-28T16:00:29.220Z,63.51
2023-04-28T16:02:56.335Z,64.17
2023-04-28T16:05:23.531Z,65.17
2023-04-28T16:07:52.697Z,65.90
2023-04-28T16:10:19.703Z,65.05
2023-04-28T16:12:47.534Z,64.11
2023-04-28T16:15:14.922Z,64.01
2023-04-28T16:17:42.483Z,63.94
2023-04-28T16:20:10.584Z,62.71
2023-04-28T16:22:39.161Z,62.84
2023-04-28T16:25:07.100Z,62.30
2023-04-28T16:27:35.274Z,62.15
2023-04-28T16:30:02.557Z,62.51
2023-04-28T16:32:30.701Z,62.47
2023-04-28T16:34:58.139Z,62.01
2023-04-28T16:37:25.585Z,61.74
2023-04-28T16:39:52.862Z,62.10
2023-04-28T16:42:22.713Z,62.35
2023-04-28T16:44:52.433Z,62.01
2023-04-28T16:47:20.240Z,61.97
2023-04-28T16:49:48.115Z,60.14
2023-04-28T16:52:15.335Z,62.48
2023-04-28T16:54:42.264Z,62.48
2023-04-28T16:57:09.323Z,62.25
2023-04-28T16:59:36.379Z,61.71
2023-04-28T17:02:07.091Z,61.12
2023-04-28T17:04:34.751Z,61.30
2023-04-28T17:07:04.714Z,63.14
2023-04-28T17:09:33.378Z,62.95
2023-04-28T17:12:01.169Z,62.50
2023-04-28T17:14:28.356Z,62.95
2023-04-28T17:16:56.032Z,62.40
2023-04-28T17:19:23.848Z,62.20
2023-04-28T17:21:52.861Z,63.20
2023-04-28T17:24:19.976Z,62.94
2023-04-28T17:26:47.207Z,64.17
2023-04-28T17:29:14.249Z,64.01
2023-04-28T17:31:41.333Z,63.13
2023-04-28T17:34:08.432Z,62.92
2023-04-28T17:36:35.456Z,64.82
2023-04-28T17:39:04.662Z,64.57
2023-04-28T17:41:31.980Z,65.21
2023-04-28T17:43:59.059Z,64.62
2023-04-28T17:46:26.401Z,66.23
2023-04-28T17:48:53.446Z,66.05
2023-04-28T17:51:20.784Z,65.75
2023-04-28T17:53:48.948Z,65.06
2023-04-28T17:56:16.503Z,65.58
2023-04-28T17:58:43.572Z,65.94
2023-04-28T18:01:10.582Z,66.54
2023-04-28T18:03:38.968Z,66.50
2023-04-28T18:06:08.066Z,66.40
2023-04-28T18:08:36.876Z,66.57
2023-04-28T18:11:05.025Z,66.94
2023-04-28T18:13:32.990Z,66.67
2023-04-28T18:16:00.663Z,66.84
2023-04-28T18:18:29.833Z,66.44
2023-04-28T18:20:59.771Z,66.65
2023-04-28T18:23:27.542Z,66.93
2023-04-28T18:25:54.697Z,66.96
2023-04-28T18:28:21.797Z,66.35
2023-04-28T18:30:48.812Z,66.81
2023-04-28T18:33:19.460Z,66.36
2023-04-28T18:35:48.376Z,66.67
2023-04-28T18:38:15.502Z,67.42
2023-04-28T18:40:42.458Z,66.91
2023-04-28T18:43:12.158Z,66.63
2023-04-28T18:45:41.321Z,66.50
2023-04-28T18:48:10.918Z,66.81
2023-04-28T18:50:38.253Z,67.26
2023-04-28T18:53:05.484Z,67.61
2023-04-28T18:55:33.583Z,67.61
2023-04-28T18:58:02.213Z,67.59
2023-04-28T19:00:29.531Z,67.33
2023-04-28T19:02:56.898Z,67.22
2023-04-28T19:05:24.227Z,66.60
2023-04-28T19:07:51.126Z,66.28
2023-04-28T19:10:18.241Z,66.57
2023-04-28T19:12:45.235Z,66.66
2023-04-28T19:15:12.477Z,66.92
2023-04-28T19:17:39.718Z,67.12
2023-04-28T19:20:07.518Z,66.74
2023-04-28T19:22:44.523Z,66.71
2023-04-28T19:25:12.163Z,66.80
2023-04-28T19:27:40.917Z,66.49
2023-04-28T19:30:10.483Z,66.36
2023-04-28T19:32:37.938Z,66.99
2023-04-28T19:35:05.480Z,67.38
2023-04-28T19:37:34.268Z,67.60
2023-04-28T19:40:03.063Z,67.67
2023-04-28T19:42:30.749Z,67.42
2023-04-28T19:44:59.137Z,66.97
2023-04-28T19:47:27.456Z,66.53
2023-04-28T19:49:54.833Z,66.37
2023-04-28T19:52:22.884Z,65.18
2023-04-28T19:54:50.532Z,65.24
2023-04-28T19:57:18.902Z,65.81
2023-04-28T19:59:46.779Z,65.30
2023-04-28T20:02:18.457Z,65.26
2023-04-28T20:04:46.738Z,64.66
2023-04-28T20:07:14.220Z,64.92
2023-04-28T20:09:41.256Z,65.61
2023-04-28T20:12:09.440Z,64.91
2023-04-28T20:14:37.282Z,65.18
2023-04-28T20:17:05.204Z,64.68
2023-04-28T20:19:32.300Z,64.25
2023-04-28T20:22:01.957Z,64.62
2023-04-28T20:24:34.264Z,64.39
2023-04-28T20:27:04.956Z,64.25
2023-04-28T20:29:34.831Z,64.19
2023-04-28T20:32:02.722Z,63.29
2023-04-28T20:34:34.492Z,63.38
2023-04-28T20:37:03.613Z,63.01
2023-04-28T20:39:30.824Z,63.10
2023-04-28T20:41:59.808Z,62.92
2023-04-28T20:44:27.049Z,62.96
2023-04-28T20:46:54.090Z,63.09
2023-04-28T20:49:21.366Z,62.82
2023-04-28T20:51:48.458Z,63.06
2023-04-28T20:54:15.656Z,62.79
2023-04-28T20:56:43.157Z,62.60
2023-04-28T20:59:10.122Z,62.59
2023-04-28T21:01:37.272Z,63.31
2023-04-28T21:04:04.392Z,63.14
2023-04-28T21:06:31.402Z,63.47
2023-04-28T21:08:58.377Z,63.49
2023-04-28T21:11:25.365Z,62.98
2023-04-28T21:13:52.542Z,62.81
2023-04-28T21:16:21.469Z,62.96
2023-04-28T21:18:49.392Z,62.90
2023-04-28T21:21:17.287Z,62.80
2023-04-28T21:23:44.480Z,62.42
2023-04-28T21:26:11.779Z,62.49
2023-04-28T21:28:40.072Z,62.55
2023-04-28T21:31:07.321Z,62.61
2023-04-28T21:33:37.937Z,62.70
2023-04-28T21:36:09.339Z,62.66
2023-04-28T21:38:39.773Z,62.20
2023-04-28T21:41:12.505Z,62.22
2023-04-28T21:43:40.383Z,62.17
2023-04-28T21:46:07.446Z,61.64
2023-04-28T21:48:34.438Z,61.85
2023-04-28T21:51:01.472Z,61.64
2023-04-28T21:53:29.020Z,61.35
2023-04-28T21:55:56.029Z,61.45
2023-04-28T21:58:22.986Z,61.52
2023-04-28T22:00:50.028Z,61.42
2023-04-28T22:03:17.218Z,61.42
2023-04-28T22:05:45.161Z,61.47
2023-04-28T22:08:17.155Z,61.24
2023-04-28T22:10:45.735Z,61.30
2023-04-28T22:13:13.511Z,60.90
2023-04-28T22:15:40.536Z,61.06
2023-04-28T22:18:08.389Z,61.16
2023-04-28T22:20:35.960Z,61.36
2023-04-28T22:23:03.065Z,61.05
2023-04-28T22:25:30.046Z,61.12
2023-04-28T22:27:56.983Z,61.20
2023-04-28T22:30:26.170Z,61.23
2023-04-28T22:32:53.673Z,60.94
2023-04-28T22:35:21.833Z,60.66
2023-04-28T22:37:48.837Z,60.79
2023-04-28T22:40:16.026Z,60.71
2023-04-28T22:42:43.660Z,60.23
2023-04-28T22:45:11.261Z,60.19
2023-04-28T22:47:40.876Z,60.18
2023-04-28T22:50:09.469Z,60.25
2023-04-28T22:52:36.950Z,60.07
2023-04-28T22:55:04.793Z,60.34
2023-04-28T22:57:31.804Z,59.99
2023-04-28T22:59:58.782Z,60.15
2023-04-28T23:02:25.912Z,60.42
2023-04-28T23:04:53.308Z,60.48
2023-04-28T23:07:20.778Z,60.02
2023-04-28T23:09:47.848Z,59.90
2023-04-28T23:12:14.874Z,60.16
2023-04-28T23:14:41.884Z,60.20
2023-04-28T23:17:08.933Z,59.81
2023-04-28T23:19:39.263Z,59.80
2023-04-28T23:22:08.015Z,59.87
2023-04-28T23:24:37.267Z,59.64
2023-04-28T23:27:04.810Z,59.83
2023-04-28T23:29:32.598Z,59.44
2023-04-28T23:31:59.759Z,59.75
2023-04-28T23:34:27.157Z,59.82
2023-04-28T23:36:54.282Z,59.68
2023-04-28T23:39:21.232Z,59.85
2023-04-28T23:41:49.486Z,59.62
2023-04-28T23:44:17.234Z,59.67
2023-04-28T23:46:44.237Z,59.52
2023-04-28T23:49:11.240Z,59.08
2023-04-28T23:51:38.320Z,58.89
2023-04-28T23:54:05.310Z,58.65
2023-04-28T23:56:32.218Z,58.56
2023-04-28T23:58:59.128Z,58.32
